sensor_id;sensor_type;location;lat;lon;timestamp;P1;durP1;ratioP1;P2;durP2;ratioP2
76210;SDS011;65003;49.518;11.280;2023-09-30T00:01:58;19.53;;;8.90;;
76210;SDS011;65003;49.518;11.280;2023-09-30T00:04:24;19.20;;;8.33;;
76210;SDS011;65003;49.518;11.280;2023-09-30T00:06:51;18.47;;;8.57;;
76210;SDS011;65003;49.518;11.280;2023-09-30T00:09:17;21.60;;;8.60;;
76210;SDS011;65003;49.518;11.280;2023-09-30T00:11:44;19.60;;;8.53;;
76210;SDS011;65003;49.518;11.280;2023-09-30T00:14:10;16.07;;;8.73;;
76210;SDS011;65003;49.518;11.280;2023-09-30T00:16:37;16.40;;;7.80;;
76210;SDS011;65003;49.518;11.280;2023-09-30T00:19:04;14.93;;;7.00;;
76210;SDS011;65003;49.518;11.280;2023-09-30T00:21:30;15.03;;;7.37;;
76210;SDS011;65003;49.518;11.280;2023-09-30T00:23:57;15.63;;;7.03;;
76210;SDS011;65003;49.518;11.280;2023-09-30T00:26:23;16.23;;;7.00;;
76210;SDS011;65003;49.518;11.280;2023-09-30T00:28:50;16.27;;;7.57;;
76210;SDS011;65003;49.518;11.280;2023-09-30T00:31:16;14.20;;;5.83;;
76210;SDS011;65003;49.518;11.280;2023-09-30T00:33:43;15.33;;;6.70;;
76210;SDS011;65003;49.518;11.280;2023-09-30T00:36:10;15.67;;;6.37;;
76210;SDS011;65003;49.518;11.280;2023-09-30T00:38:37;12.83;;;6.07;;
76210;SDS011;65003;49.518;11.280;2023-09-30T00:41:03;12.93;;;5.90;;
76210;SDS011;65003;49.518;11.280;2023-09-30T00:43:30;13.33;;;5.33;;
76210;SDS011;65003;49.518;11.280;2023-09-30T00:46:29;12.77;;;6.50;;
76210;SDS011;65003;49.518;11.280;2023-09-30T00:48:42;10.97;;;5.17;;
76210;SDS011;65003;49.518;11.280;2023-09-30T00:51:08;10.10;;;4.77;;
76210;SDS011;65003;49.518;11.280;2023-09-30T00:53:35;12.90;;;5.03;;
76210;SDS011;65003;49.518;11.280;2023-09-30T00:56:01;10.57;;;4.77;;
76210;SDS011;65003;49.518;11.280;2023-09-30T00:58:28;8.00;;;4.13;;
76210;SDS011;65003;49.518;11.280;2023-09-30T01:00:55;8.30;;;4.10;;
76210;SDS011;65003;49.518;11.280;2023-09-30T01:03:22;9.50;;;4.67;;
76210;SDS011;65003;49.518;11.280;2023-09-30T01:05:48;14.03;;;4.63;;
76210;SDS011;65003;49.518;11.280;2023-09-30T01:08:16;13.33;;;4.63;;
76210;SDS011;65003;49.518;11.280;2023-09-30T01:10:42;12.87;;;3.93;;
76210;SDS011;65003;49.518;11.280;2023-09-30T01:13:09;10.47;;;4.40;;
76210;SDS011;65003;49.518;11.280;2023-09-30T01:15:35;8.67;;;3.90;;
76210;SDS011;65003;49.518;11.280;2023-09-30T01:18:02;9.70;;;4.07;;
76210;SDS011;65003;49.518;11.280;2023-09-30T01:20:29;9.47;;;3.67;;
76210;SDS011;65003;49.518;11.280;2023-09-30T01:22:56;7.33;;;3.73;;
76210;SDS011;65003;49.518;11.280;2023-09-30T01:25:22;7.07;;;3.03;;
76210;SDS011;65003;49.518;11.280;2023-09-30T01:27:49;8.80;;;3.97;;
76210;SDS011;65003;49.518;11.280;2023-09-30T01:30:16;6.70;;;3.57;;
76210;SDS011;65003;49.518;11.280;2023-09-30T01:32:43;7.63;;;3.53;;
76210;SDS011;65003;49.518;11.280;2023-09-30T01:35:09;6.67;;;3.10;;
76210;SDS011;65003;49.518;11.280;2023-09-30T01:37:36;7.60;;;3.23;;
76210;SDS011;65003;49.518;11.280;2023-09-30T01:40:03;8.10;;;3.37;;
76210;SDS011;65003;49.518;11.280;2023-09-30T01:42:30;9.00;;;3.47;;
76210;SDS011;65003;49.518;11.280;2023-09-30T01:44:56;8.93;;;3.40;;
76210;SDS011;65003;49.518;11.280;2023-09-30T01:47:23;7.83;;;3.47;;
76210;SDS011;65003;49.518;11.280;2023-09-30T01:49:49;6.67;;;3.33;;
76210;SDS011;65003;49.518;11.280;2023-09-30T01:52:16;11.67;;;3.80;;
76210;SDS011;65003;49.518;11.280;2023-09-30T01:54:43;8.00;;;3.43;;
76210;SDS011;65003;49.518;11.280;2023-09-30T01:57:09;7.47;;;3.40;;
76210;SDS011;65003;49.518;11.280;2023-09-30T01:59:36;10.53;;;3.20;;
76210;SDS011;65003;49.518;11.280;2023-09-30T02:02:02;5.77;;;2.97;;
76210;SDS011;65003;49.518;11.280;2023-09-30T02:04:29;6.90;;;2.70;;
76210;SDS011;65003;49.518;11.280;2023-09-30T02:06:56;9.97;;;3.83;;
76210;SDS011;65003;49.518;11.280;2023-09-30T02:09:22;6.07;;;2.80;;
76210;SDS011;65003;49.518;11.280;2023-09-30T02:11:49;6.87;;;3.30;;
76210;SDS011;65003;49.518;11.280;2023-09-30T02:14:15;6.63;;;3.27;;
76210;SDS011;65003;49.518;11.280;2023-09-30T02:16:42;11.23;;;3.40;;
76210;SDS011;65003;49.518;11.280;2023-09-30T02:19:09;9.47;;;3.50;;
76210;SDS011;65003;49.518;11.280;2023-09-30T02:21:35;5.40;;;3.23;;
76210;SDS011;65003;49.518;11.280;2023-09-30T02:24:02;7.27;;;3.40;;
76210;SDS011;65003;49.518;11.280;2023-09-30T02:26:28;7.90;;;3.23;;
76210;SDS011;65003;49.518;11.280;2023-09-30T02:28:55;5.77;;;2.57;;
76210;SDS011;65003;49.518;11.280;2023-09-30T02:31:22;9.43;;;3.63;;
76210;SDS011;65003;49.518;11.280;2023-09-30T02:33:48;5.87;;;3.10;;
76210;SDS011;65003;49.518;11.280;2023-09-30T02:36:15;6.20;;;3.50;;
76210;SDS011;65003;49.518;11.280;2023-09-30T02:38:42;7.80;;;3.03;;
76210;SDS011;65003;49.518;11.280;2023-09-30T02:41:08;6.63;;;3.00;;
76210;SDS011;65003;49.518;11.280;2023-09-30T02:43:35;6.73;;;3.17;;
76210;SDS011;65003;49.518;11.280;2023-09-30T02:46:01;6.93;;;2.67;;
76210;SDS011;65003;49.518;11.280;2023-09-30T02:48:28;6.00;;;3.07;;
76210;SDS011;65003;49.518;11.280;2023-09-30T02:50:54;6.27;;;2.80;;
76210;SDS011;65003;49.518;11.280;2023-09-30T02:53:21;7.50;;;2.93;;
76210;SDS011;65003;49.518;11.280;2023-09-30T02:55:48;5.47;;;2.80;;
76210;SDS011;65003;49.518;11.280;2023-09-30T02:58:14;6.70;;;2.70;;
76210;SDS011;65003;49.518;11.280;2023-09-30T03:00:41;8.57;;;2.40;;
76210;SDS011;65003;49.518;11.280;2023-09-30T03:03:08;5.10;;;2.87;;
76210;SDS011;65003;49.518;11.280;2023-09-30T03:05:34;4.50;;;2.70;;
76210;SDS011;65003;49.518;11.280;2023-09-30T03:08:01;5.87;;;2.70;;
76210;SDS011;65003;49.518;11.280;2023-09-30T03:10:27;6.00;;;3.10;;
76210;SDS011;65003;49.518;11.280;2023-09-30T03:12:54;8.60;;;3.40;;
76210;SDS011;65003;49.518;11.280;2023-09-30T03:15:21;9.13;;;3.77;;
76210;SDS011;65003;49.518;11.280;2023-09-30T03:17:47;5.67;;;2.70;;
76210;SDS011;65003;49.518;11.280;2023-09-30T03:20:14;6.27;;;3.20;;
76210;SDS011;65003;49.518;11.280;2023-09-30T03:22:41;4.23;;;2.33;;
76210;SDS011;65003;49.518;11.280;2023-09-30T03:25:08;3.50;;;2.60;;
76210;SDS011;65003;49.518;11.280;2023-09-30T03:27:36;5.80;;;3.03;;
76210;SDS011;65003;49.518;11.280;2023-09-30T03:30:02;6.10;;;3.10;;
76210;SDS011;65003;49.518;11.280;2023-09-30T03:32:29;4.93;;;3.07;;
76210;SDS011;65003;49.518;11.280;2023-09-30T03:34:55;3.67;;;2.53;;
76210;SDS011;65003;49.518;11.280;2023-09-30T03:37:22;3.07;;;2.37;;
76210;SDS011;65003;49.518;11.280;2023-09-30T03:39:49;5.70;;;2.53;;
76210;SDS011;65003;49.518;11.280;2023-09-30T03:42:15;5.10;;;2.93;;
76210;SDS011;65003;49.518;11.280;2023-09-30T03:44:42;7.63;;;2.80;;
76210;SDS011;65003;49.518;11.280;2023-09-30T03:47:08;3.47;;;2.27;;
76210;SDS011;65003;49.518;11.280;2023-09-30T03:49:35;4.60;;;2.50;;
76210;SDS011;65003;49.518;11.280;2023-09-30T03:52:02;6.30;;;2.97;;
76210;SDS011;65003;49.518;11.280;2023-09-30T03:54:28;6.17;;;2.83;;
76210;SDS011;65003;49.518;11.280;2023-09-30T03:56:55;9.17;;;2.60;;
76210;SDS011;65003;49.518;11.280;2023-09-30T03:59:22;5.17;;;2.90;;
76210;SDS011;65003;49.518;11.280;2023-09-30T04:01:48;3.73;;;2.20;;
76210;SDS011;65003;49.518;11.280;2023-09-30T04:04:15;5.97;;;2.50;;
76210;SDS011;65003;49.518;11.280;2023-09-30T04:06:42;3.37;;;2.27;;
76210;SDS011;65003;49.518;11.280;2023-09-30T04:09:08;4.90;;;2.57;;
76210;SDS011;65003;49.518;11.280;2023-09-30T04:11:36;4.10;;;2.50;;
76210;SDS011;65003;49.518;11.280;2023-09-30T04:14:06;5.37;;;2.30;;
76210;SDS011;65003;49.518;11.280;2023-09-30T04:16:32;6.17;;;2.50;;
76210;SDS011;65003;49.518;11.280;2023-09-30T04:18:58;7.53;;;2.73;;
76210;SDS011;65003;49.518;11.280;2023-09-30T04:21:25;5.90;;;2.30;;
76210;SDS011;65003;49.518;11.280;2023-09-30T04:23:52;3.73;;;2.27;;
76210;SDS011;65003;49.518;11.280;2023-09-30T04:26:18;4.20;;;2.10;;
76210;SDS011;65003;49.518;11.280;2023-09-30T04:28:45;2.40;;;1.60;;
76210;SDS011;65003;49.518;11.280;2023-09-30T04:31:11;3.17;;;2.30;;
76210;SDS011;65003;49.518;11.280;2023-09-30T04:33:38;2.73;;;1.80;;
76210;SDS011;65003;49.518;11.280;2023-09-30T04:36:05;3.17;;;1.90;;
76210;SDS011;65003;49.518;11.280;2023-09-30T04:38:33;3.87;;;1.93;;
76210;SDS011;65003;49.518;11.280;2023-09-30T04:40:59;3.47;;;2.00;;
76210;SDS011;65003;49.518;11.280;2023-09-30T04:43:26;5.00;;;1.97;;
76210;SDS011;65003;49.518;11.280;2023-09-30T04:45:53;3.20;;;1.70;;
76210;SDS011;65003;49.518;11.280;2023-09-30T04:48:19;3.77;;;1.70;;
76210;SDS011;65003;49.518;11.280;2023-09-30T04:50:47;2.87;;;1.60;;
76210;SDS011;65003;49.518;11.280;2023-09-30T04:53:13;2.83;;;1.40;;
76210;SDS011;65003;49.518;11.280;2023-09-30T04:55:40;3.83;;;2.10;;
76210;SDS011;65003;49.518;11.280;2023-09-30T04:58:06;1.70;;;1.30;;
76210;SDS011;65003;49.518;11.280;2023-09-30T05:00:33;5.43;;;1.90;;
76210;SDS011;65003;49.518;11.280;2023-09-30T05:03:00;3.17;;;1.40;;
76210;SDS011;65003;49.518;11.280;2023-09-30T05:05:26;2.37;;;1.57;;
76210;SDS011;65003;49.518;11.280;2023-09-30T05:07:53;7.43;;;2.23;;
76210;SDS011;65003;49.518;11.280;2023-09-30T05:10:20;3.97;;;1.57;;
76210;SDS011;65003;49.518;11.280;2023-09-30T05:12:46;5.07;;;2.70;;
76210;SDS011;65003;49.518;11.280;2023-09-30T05:15:13;5.80;;;2.37;;
76210;SDS011;65003;49.518;11.280;2023-09-30T05:17:39;7.43;;;2.53;;
76210;SDS011;65003;49.518;11.280;2023-09-30T05:20:06;4.67;;;1.90;;
76210;SDS011;65003;49.518;11.280;2023-09-30T05:22:33;4.53;;;1.93;;
76210;SDS011;65003;49.518;11.280;2023-09-30T05:25:00;5.67;;;2.17;;
76210;SDS011;65003;49.518;11.280;2023-09-30T05:27:26;6.63;;;1.80;;
76210;SDS011;65003;49.518;11.280;2023-09-30T05:29:53;5.90;;;2.27;;
76210;SDS011;65003;49.518;11.280;2023-09-30T05:32:20;4.50;;;2.10;;
76210;SDS011;65003;49.518;11.280;2023-09-30T05:34:46;5.80;;;2.47;;
76210;SDS011;65003;49.518;11.280;2023-09-30T05:37:13;4.53;;;2.60;;
76210;SDS011;65003;49.518;11.280;2023-09-30T05:39:39;7.53;;;2.40;;
76210;SDS011;65003;49.518;11.280;2023-09-30T05:42:06;5.03;;;2.27;;
76210;SDS011;65003;49.518;11.280;2023-09-30T05:44:33;4.90;;;2.57;;
76210;SDS011;65003;49.518;11.280;2023-09-30T05:46:59;7.13;;;4.57;;
76210;SDS011;65003;49.518;11.280;2023-09-30T05:49:26;6.17;;;3.03;;
76210;SDS011;65003;49.518;11.280;2023-09-30T05:51:52;8.13;;;2.57;;
76210;SDS011;65003;49.518;11.280;2023-09-30T05:54:19;4.30;;;2.57;;
76210;SDS011;65003;49.518;11.280;2023-09-30T05:56:45;4.83;;;2.47;;
76210;SDS011;65003;49.518;11.280;2023-09-30T05:59:12;7.67;;;2.80;;
76210;SDS011;65003;49.518;11.280;2023-09-30T06:01:39;3.73;;;2.10;;
76210;SDS011;65003;49.518;11.280;2023-09-30T06:04:05;4.17;;;2.30;;
76210;SDS011;65003;49.518;11.280;2023-09-30T06:06:32;4.10;;;2.30;;
76210;SDS011;65003;49.518;11.280;2023-09-30T06:08:58;4.07;;;2.30;;
76210;SDS011;65003;49.518;11.280;2023-09-30T06:11:25;5.90;;;2.60;;
76210;SDS011;65003;49.518;11.280;2023-09-30T06:13:52;3.77;;;2.40;;
76210;SDS011;65003;49.518;11.280;2023-09-30T06:16:18;4.43;;;2.20;;
76210;SDS011;65003;49.518;11.280;2023-09-30T06:18:45;3.73;;;2.50;;
76210;SDS011;65003;49.518;11.280;2023-09-30T06:21:12;4.03;;;2.30;;
76210;SDS011;65003;49.518;11.280;2023-09-30T06:23:39;4.67;;;2.40;;
76210;SDS011;65003;49.518;11.280;2023-09-30T06:26:05;4.27;;;2.43;;
76210;SDS011;65003;49.518;11.280;2023-09-30T06:28:32;6.23;;;2.10;;
76210;SDS011;65003;49.518;11.280;2023-09-30T06:30:59;3.00;;;2.30;;
76210;SDS011;65003;49.518;11.280;2023-09-30T06:33:25;4.70;;;2.20;;
76210;SDS011;65003;49.518;11.280;2023-09-30T06:35:52;5.83;;;2.30;;
76210;SDS011;65003;49.518;11.280;2023-09-30T06:38:19;3.70;;;1.87;;
76210;SDS011;65003;49.518;11.280;2023-09-30T06:40:45;3.87;;;2.37;;
76210;SDS011;65003;49.518;11.280;2023-09-30T06:43:13;4.47;;;2.07;;
76210;SDS011;65003;49.518;11.280;2023-09-30T06:45:42;5.57;;;2.60;;
76210;SDS011;65003;49.518;11.280;2023-09-30T06:48:09;4.10;;;2.60;;
76210;SDS011;65003;49.518;11.280;2023-09-30T06:50:36;5.07;;;2.10;;
76210;SDS011;65003;49.518;11.280;2023-09-30T06:53:03;5.70;;;2.07;;
76210;SDS011;65003;49.518;11.280;2023-09-30T06:55:29;3.57;;;1.80;;
76210;SDS011;65003;49.518;11.280;2023-09-30T06:57:56;4.27;;;2.37;;
76210;SDS011;65003;49.518;11.280;2023-09-30T07:00:22;4.47;;;2.10;;
76210;SDS011;65003;49.518;11.280;2023-09-30T07:02:49;5.43;;;2.43;;
76210;SDS011;65003;49.518;11.280;2023-09-30T07:05:16;5.33;;;2.40;;
76210;SDS011;65003;49.518;11.280;2023-09-30T07:07:42;4.87;;;2.23;;
76210;SDS011;65003;49.518;11.280;2023-09-30T07:10:09;5.83;;;2.67;;
76210;SDS011;65003;49.518;11.280;2023-09-30T07:12:36;4.17;;;1.70;;
76210;SDS011;65003;49.518;11.280;2023-09-30T07:15:03;4.33;;;2.20;;
76210;SDS011;65003;49.518;11.280;2023-09-30T07:17:30;5.73;;;2.03;;
76210;SDS011;65003;49.518;11.280;2023-09-30T07:19:56;4.63;;;2.20;;
76210;SDS011;65003;49.518;11.280;2023-09-30T07:22:23;5.90;;;2.10;;
76210;SDS011;65003;49.518;11.280;2023-09-30T07:24:50;4.03;;;2.23;;
76210;SDS011;65003;49.518;11.280;2023-09-30T07:27:16;6.00;;;2.30;;
76210;SDS011;65003;49.518;11.280;2023-09-30T07:29:43;3.23;;;1.87;;
76210;SDS011;65003;49.518;11.280;2023-09-30T07:32:09;4.80;;;2.17;;
76210;SDS011;65003;49.518;11.280;2023-09-30T07:34:36;4.87;;;2.10;;
76210;SDS011;65003;49.518;11.280;2023-09-30T07:37:03;3.83;;;1.80;;
76210;SDS011;65003;49.518;11.280;2023-09-30T07:39:29;4.67;;;1.77;;
76210;SDS011;65003;49.518;11.280;2023-09-30T07:41:56;2.80;;;2.10;;
76210;SDS011;65003;49.518;11.280;2023-09-30T07:44:22;5.33;;;2.17;;
76210;SDS011;65003;49.518;11.280;2023-09-30T07:46:49;5.17;;;1.90;;
76210;SDS011;65003;49.518;11.280;2023-09-30T07:49:15;5.60;;;2.27;;
76210;SDS011;65003;49.518;11.280;2023-09-30T07:51:42;4.50;;;2.07;;
76210;SDS011;65003;49.518;11.280;2023-09-30T07:54:09;3.90;;;2.00;;
76210;SDS011;65003;49.518;11.280;2023-09-30T07:56:35;5.63;;;2.10;;
76210;SDS011;65003;49.518;11.280;2023-09-30T07:59:02;4.27;;;2.07;;
76210;SDS011;65003;49.518;11.280;2023-09-30T08:01:29;3.13;;;1.27;;
76210;SDS011;65003;49.518;11.280;2023-09-30T08:03:55;5.90;;;2.30;;
76210;SDS011;65003;49.518;11.280;2023-09-30T08:06:22;4.60;;;2.03;;
76210;SDS011;65003;49.518;11.280;2023-09-30T08:08:48;8.70;;;2.40;;
76210;SDS011;65003;49.518;11.280;2023-09-30T08:11:15;3.80;;;1.70;;
76210;SDS011;65003;49.518;11.280;2023-09-30T08:13:41;6.87;;;2.00;;
76210;SDS011;65003;49.518;11.280;2023-09-30T08:16:08;5.20;;;2.27;;
76210;SDS011;65003;49.518;11.280;2023-09-30T08:18:35;2.53;;;1.40;;
76210;SDS011;65003;49.518;11.280;2023-09-30T08:21:01;4.50;;;2.00;;
76210;SDS011;65003;49.518;11.280;2023-09-30T08:23:29;5.47;;;1.80;;
76210;SDS011;65003;49.518;11.280;2023-09-30T08:25:57;5.50;;;2.27;;
76210;SDS011;65003;49.518;11.280;2023-09-30T08:28:21;4.80;;;1.60;;
76210;SDS011;65003;49.518;11.280;2023-09-30T08:30:48;3.23;;;1.63;;
76210;SDS011;65003;49.518;11.280;2023-09-30T08:33:14;6.37;;;2.30;;
76210;SDS011;65003;49.518;11.280;2023-09-30T08:35:41;4.77;;;2.20;;
76210;SDS011;65003;49.518;11.280;2023-09-30T08:38:07;4.57;;;2.77;;
76210;SDS011;65003;49.518;11.280;2023-09-30T08:40:34;3.43;;;2.27;;
76210;SDS011;65003;49.518;11.280;2023-09-30T08:43:00;4.53;;;2.50;;
76210;SDS011;65003;49.518;11.280;2023-09-30T08:45:27;3.63;;;2.27;;
76210;SDS011;65003;49.518;11.280;2023-09-30T08:47:54;5.77;;;2.50;;
76210;SDS011;65003;49.518;11.280;2023-09-30T08:50:21;3.80;;;2.00;;
76210;SDS011;65003;49.518;11.280;2023-09-30T08:52:48;5.87;;;2.20;;
76210;SDS011;65003;49.518;11.280;2023-09-30T08:55:14;4.27;;;2.07;;
76210;SDS011;65003;49.518;11.280;2023-09-30T08:57:41;4.20;;;2.33;;
76210;SDS011;65003;49.518;11.280;2023-09-30T09:00:08;5.37;;;2.60;;
76210;SDS011;65003;49.518;11.280;2023-09-30T09:02:39;3.83;;;2.40;;
76210;SDS011;65003;49.518;11.280;2023-09-30T09:05:05;6.43;;;2.60;;
76210;SDS011;65003;49.518;11.280;2023-09-30T09:07:34;5.00;;;2.63;;
76210;SDS011;65003;49.518;11.280;2023-09-30T09:10:02;5.30;;;2.73;;
76210;SDS011;65003;49.518;11.280;2023-09-30T09:12:33;5.77;;;3.00;;
76210;SDS011;65003;49.518;11.280;2023-09-30T09:14:59;3.97;;;2.30;;
76210;SDS011;65003;49.518;11.280;2023-09-30T09:17:42;5.27;;;2.53;;
76210;SDS011;65003;49.518;11.280;2023-09-30T09:20:09;6.40;;;2.00;;
76210;SDS011;65003;49.518;11.280;2023-09-30T09:22:39;3.50;;;2.00;;
76210;SDS011;65003;49.518;11.280;2023-09-30T09:25:05;6.07;;;2.47;;
76210;SDS011;65003;49.518;11.280;2023-09-30T09:27:33;7.00;;;2.90;;
76210;SDS011;65003;49.518;11.280;2023-09-30T09:30:13;2.97;;;2.07;;
76210;SDS011;65003;49.518;11.280;2023-09-30T09:32:32;5.00;;;2.07;;
76210;SDS011;65003;49.518;11.280;2023-09-30T09:35:00;3.07;;;2.30;;
76210;SDS011;65003;49.518;11.280;2023-09-30T09:37:26;3.20;;;2.17;;
76210;SDS011;65003;49.518;11.280;2023-09-30T09:39:53;5.23;;;2.03;;
76210;SDS011;65003;49.518;11.280;2023-09-30T09:44:55;6.07;;;2.00;;
76210;SDS011;65003;49.518;11.280;2023-09-30T09:47:21;4.45;;;2.35;;
76210;SDS011;65003;49.518;11.280;2023-09-30T09:49:48;3.30;;;2.10;;
76210;SDS011;65003;49.518;11.280;2023-09-30T09:52:14;3.50;;;2.53;;
76210;SDS011;65003;49.518;11.280;2023-09-30T09:54:41;4.80;;;1.80;;
76210;SDS011;65003;49.518;11.280;2023-09-30T09:57:08;5.23;;;2.27;;
76210;SDS011;65003;49.518;11.280;2023-09-30T09:59:34;3.60;;;2.03;;
76210;SDS011;65003;49.518;11.280;2023-09-30T10:02:01;4.00;;;2.00;;
76210;SDS011;65003;49.518;11.280;2023-09-30T10:04:27;4.23;;;1.83;;
76210;SDS011;65003;49.518;11.280;2023-09-30T10:06:54;2.87;;;1.80;;
76210;SDS011;65003;49.518;11.280;2023-09-30T10:09:21;4.23;;;1.67;;
76210;SDS011;65003;49.518;11.280;2023-09-30T10:11:47;4.60;;;2.20;;
76210;SDS011;65003;49.518;11.280;2023-09-30T10:16:52;5.57;;;2.00;;
76210;SDS011;65003;49.518;11.280;2023-09-30T10:19:20;7.30;;;2.10;;
76210;SDS011;65003;49.518;11.280;2023-09-30T10:24:33;4.90;;;2.00;;
76210;SDS011;65003;49.518;11.280;2023-09-30T10:29:40;5.63;;;1.80;;
76210;SDS011;65003;49.518;11.280;2023-09-30T10:32:07;3.63;;;1.70;;
76210;SDS011;65003;49.518;11.280;2023-09-30T10:34:33;4.60;;;1.83;;
76210;SDS011;65003;49.518;11.280;2023-09-30T10:37:19;5.83;;;1.83;;
76210;SDS011;65003;49.518;11.280;2023-09-30T10:44:59;2.63;;;1.43;;
76210;SDS011;65003;49.518;11.280;2023-09-30T10:47:34;5.60;;;2.20;;
76210;SDS011;65003;49.518;11.280;2023-09-30T10:50:01;4.63;;;1.80;;
76210;SDS011;65003;49.518;11.280;2023-09-30T10:52:28;3.67;;;1.60;;
76210;SDS011;65003;49.518;11.280;2023-09-30T10:54:54;5.63;;;2.20;;
76210;SDS011;65003;49.518;11.280;2023-09-30T10:57:26;3.13;;;1.17;;
76210;SDS011;65003;49.518;11.280;2023-09-30T11:02:34;4.67;;;2.00;;
76210;SDS011;65003;49.518;11.280;2023-09-30T11:07:34;4.40;;;1.60;;
76210;SDS011;65003;49.518;11.280;2023-09-30T11:10:01;3.07;;;1.83;;
76210;SDS011;65003;49.518;11.280;2023-09-30T11:12:27;3.67;;;1.60;;
76210;SDS011;65003;49.518;11.280;2023-09-30T11:14:59;5.70;;;2.17;;
76210;SDS011;65003;49.518;11.280;2023-09-30T11:17:25;4.33;;;2.03;;
76210;SDS011;65003;49.518;11.280;2023-09-30T11:19:52;4.17;;;1.70;;
76210;SDS011;65003;49.518;11.280;2023-09-30T11:22:18;5.23;;;1.67;;
76210;SDS011;65003;49.518;11.280;2023-09-30T11:24:45;4.63;;;1.53;;
76210;SDS011;65003;49.518;11.280;2023-09-30T11:27:11;3.63;;;1.70;;
76210;SDS011;65003;49.518;11.280;2023-09-30T11:29:48;5.27;;;1.83;;
76210;SDS011;65003;49.518;11.280;2023-09-30T11:32:23;3.40;;;1.80;;
76210;SDS011;65003;49.518;11.280;2023-09-30T11:34:49;3.20;;;1.87;;
76210;SDS011;65003;49.518;11.280;2023-09-30T11:37:15;4.70;;;1.77;;
76210;SDS011;65003;49.518;11.280;2023-09-30T11:39:42;4.53;;;2.07;;
76210;SDS011;65003;49.518;11.280;2023-09-30T11:42:15;4.27;;;1.87;;
76210;SDS011;65003;49.518;11.280;2023-09-30T11:44:44;4.13;;;2.07;;
76210;SDS011;65003;49.518;11.280;2023-09-30T11:47:11;3.23;;;1.87;;
76210;SDS011;65003;49.518;11.280;2023-09-30T11:49:38;4.30;;;2.00;;
76210;SDS011;65003;49.518;11.280;2023-09-30T11:52:04;4.13;;;2.03;;
76210;SDS011;65003;49.518;11.280;2023-09-30T11:54:33;7.97;;;1.93;;
76210;SDS011;65003;49.518;11.280;2023-09-30T11:57:01;4.40;;;2.13;;
76210;SDS011;65003;49.518;11.280;2023-09-30T11:59:27;4.50;;;2.23;;
76210;SDS011;65003;49.518;11.280;2023-09-30T12:01:54;4.03;;;1.90;;
76210;SDS011;65003;49.518;11.280;2023-09-30T12:04:20;3.87;;;1.90;;
76210;SDS011;65003;49.518;11.280;2023-09-30T12:06:47;3.87;;;2.07;;
76210;SDS011;65003;49.518;11.280;2023-09-30T12:09:14;4.23;;;2.00;;
76210;SDS011;65003;49.518;11.280;2023-09-30T12:11:41;4.00;;;2.10;;
76210;SDS011;65003;49.518;11.280;2023-09-30T12:14:11;4.53;;;2.27;;
76210;SDS011;65003;49.518;11.280;2023-09-30T12:16:37;4.60;;;2.10;;
76210;SDS011;65003;49.518;11.280;2023-09-30T12:19:03;3.47;;;2.10;;
76210;SDS011;65003;49.518;11.280;2023-09-30T12:21:30;6.43;;;2.33;;
76210;SDS011;65003;49.518;11.280;2023-09-30T12:23:57;6.00;;;2.00;;
76210;SDS011;65003;49.518;11.280;2023-09-30T12:26:23;7.37;;;2.50;;
76210;SDS011;65003;49.518;11.280;2023-09-30T12:28:50;4.20;;;1.80;;
76210;SDS011;65003;49.518;11.280;2023-09-30T12:31:16;7.37;;;3.13;;
76210;SDS011;65003;49.518;11.280;2023-09-30T12:33:43;4.43;;;2.27;;
76210;SDS011;65003;49.518;11.280;2023-09-30T12:36:09;4.67;;;2.27;;
76210;SDS011;65003;49.518;11.280;2023-09-30T12:38:36;5.20;;;2.37;;
76210;SDS011;65003;49.518;11.280;2023-09-30T12:41:03;4.40;;;2.40;;
76210;SDS011;65003;49.518;11.280;2023-09-30T12:43:29;5.67;;;2.50;;
76210;SDS011;65003;49.518;11.280;2023-09-30T12:45:56;5.60;;;2.17;;
76210;SDS011;65003;49.518;11.280;2023-09-30T12:48:22;4.23;;;2.27;;
76210;SDS011;65003;49.518;11.280;2023-09-30T12:50:49;5.20;;;2.37;;
76210;SDS011;65003;49.518;11.280;2023-09-30T12:53:15;3.53;;;2.43;;
76210;SDS011;65003;49.518;11.280;2023-09-30T12:55:42;5.83;;;2.77;;
76210;SDS011;65003;49.518;11.280;2023-09-30T12:58:09;4.80;;;2.63;;
76210;SDS011;65003;49.518;11.280;2023-09-30T13:00:35;5.43;;;2.50;;
76210;SDS011;65003;49.518;11.280;2023-09-30T13:03:02;4.67;;;2.17;;
76210;SDS011;65003;49.518;11.280;2023-09-30T13:05:30;5.23;;;2.37;;
76210;SDS011;65003;49.518;11.280;2023-09-30T13:07:56;4.20;;;2.10;;
76210;SDS011;65003;49.518;11.280;2023-09-30T13:10:23;4.63;;;2.30;;
76210;SDS011;65003;49.518;11.280;2023-09-30T13:12:49;5.77;;;2.87;;
76210;SDS011;65003;49.518;11.280;2023-09-30T13:15:16;21.73;;;5.17;;
76210;SDS011;65003;49.518;11.280;2023-09-30T13:17:43;10.57;;;3.10;;
76210;SDS011;65003;49.518;11.280;2023-09-30T13:20:10;5.60;;;2.27;;
76210;SDS011;65003;49.518;11.280;2023-09-30T13:22:37;6.03;;;2.10;;
76210;SDS011;65003;49.518;11.280;2023-09-30T13:25:04;5.63;;;2.00;;
76210;SDS011;65003;49.518;11.280;2023-09-30T13:27:31;4.23;;;2.20;;
76210;SDS011;65003;49.518;11.280;2023-09-30T13:29:58;5.73;;;2.63;;
76210;SDS011;65003;49.518;11.280;2023-09-30T13:32:25;5.37;;;2.30;;
76210;SDS011;65003;49.518;11.280;2023-09-30T13:34:51;5.20;;;2.40;;
76210;SDS011;65003;49.518;11.280;2023-09-30T13:37:18;3.47;;;2.20;;
76210;SDS011;65003;49.518;11.280;2023-09-30T13:39:44;4.03;;;2.00;;
76210;SDS011;65003;49.518;11.280;2023-09-30T13:42:11;4.17;;;2.23;;
76210;SDS011;65003;49.518;11.280;2023-09-30T13:44:38;5.17;;;2.80;;
76210;SDS011;65003;49.518;11.280;2023-09-30T13:47:04;4.87;;;2.70;;
76210;SDS011;65003;49.518;11.280;2023-09-30T13:49:31;12.07;;;4.10;;
76210;SDS011;65003;49.518;11.280;2023-09-30T13:51:57;4.80;;;2.33;;
76210;SDS011;65003;49.518;11.280;2023-09-30T13:54:24;6.17;;;2.93;;
76210;SDS011;65003;49.518;11.280;2023-09-30T13:56:50;6.57;;;3.00;;
76210;SDS011;65003;49.518;11.280;2023-09-30T13:59:17;6.73;;;2.70;;
76210;SDS011;65003;49.518;11.280;2023-09-30T14:01:44;6.67;;;2.97;;
76210;SDS011;65003;49.518;11.280;2023-09-30T14:04:10;8.00;;;3.13;;
76210;SDS011;65003;49.518;11.280;2023-09-30T14:06:37;6.30;;;3.20;;
76210;SDS011;65003;49.518;11.280;2023-09-30T14:09:04;4.70;;;2.43;;
76210;SDS011;65003;49.518;11.280;2023-09-30T14:11:30;4.77;;;2.83;;
76210;SDS011;65003;49.518;11.280;2023-09-30T14:13:57;5.07;;;2.67;;
76210;SDS011;65003;49.518;11.280;2023-09-30T14:16:23;3.87;;;2.47;;
76210;SDS011;65003;49.518;11.280;2023-09-30T14:18:50;8.20;;;3.17;;
76210;SDS011;65003;49.518;11.280;2023-09-30T14:21:17;5.20;;;2.37;;
76210;SDS011;65003;49.518;11.280;2023-09-30T14:23:43;6.17;;;2.83;;
76210;SDS011;65003;49.518;11.280;2023-09-30T14:26:10;7.63;;;2.97;;
76210;SDS011;65003;49.518;11.280;2023-09-30T14:28:37;13.53;;;3.30;;
76210;SDS011;65003;49.518;11.280;2023-09-30T14:31:03;4.53;;;2.80;;
76210;SDS011;65003;49.518;11.280;2023-09-30T14:33:30;5.50;;;2.80;;
76210;SDS011;65003;49.518;11.280;2023-09-30T14:35:57;5.53;;;3.00;;
76210;SDS011;65003;49.518;11.280;2023-09-30T14:38:23;4.07;;;2.73;;
76210;SDS011;65003;49.518;11.280;2023-09-30T14:40:50;5.00;;;2.90;;
76210;SDS011;65003;49.518;11.280;2023-09-30T14:43:16;6.03;;;2.90;;
76210;SDS011;65003;49.518;11.280;2023-09-30T14:45:43;6.23;;;3.07;;
76210;SDS011;65003;49.518;11.280;2023-09-30T14:48:09;4.97;;;3.10;;
76210;SDS011;65003;49.518;11.280;2023-09-30T14:50:36;6.63;;;3.03;;
76210;SDS011;65003;49.518;11.280;2023-09-30T14:53:03;8.13;;;3.40;;